Wednesday, January 17, 2018, 6:24 AM EST
Back to Local

KBML, Berlin Municipal Airport

Location: Milan, NH, United States Lat: 44.583
Local Time: 6:24 AM EST (11:24 GMT) Lon: -71.183
Time Zone: US/Eastern Elev: 1158 ft

Show me the last for .
Show Coded

Time T Td Feel RH Dir Speed Gust Alt SLP Vis Weather Sky Remarks
2018-01-17 05:52 19 17 - 91 - Calm - 30.30 30.37 3 -SN BR OVC043 1-hr Precip Total: Trace
2018-01-17 04:52 19 17 - 91 - Calm - 30.29 30.36 2 -SN BR OVC036 1-hr Precip Total: Trace
2018-01-17 04:14 20 17 - 88 - Calm - 30.30 - 2 -SN BR OVC041 1-hr Precip Total: Trace
2018-01-17 03:52 19 17 - 91 - Calm - 30.30 30.37 3 -SN BR OVC047 1-hr Precip Total: Trace
6-hr Precip Total (4am): 0.00"
2018-01-17 02:52 20 17 - 88 - Calm - 30.30 30.37 3 -SN BR OVC044 1-hr Precip Total: Trace
2018-01-17 01:52 19 17 - 91 - Calm - 30.31 30.37 3 -SN BR OVC046 1-hr Precip Total: Trace
2018-01-17 01:49 19 18 - 92 - Calm - 30.31 - 3 -SN BR OVC044 1-hr Precip Total: Trace
2018-01-17 01:07 19 17 - 91 - Calm - 30.32 - 2 -SN BR OVC030 1-hr Precip Total: Trace
2018-01-17 00:52 20 17 - 88 - Calm - 30.32 30.38 2 -SN BR OVC029 1-hr Precip Total: Trace
6-hr Precip Total (1am): 0.00"
6-hr Min Temp (1am): 18.0°F
6-hr Max Temp (1am): 19.9°F
2018-01-17 00:25 20 17 - 88 - Calm - 30.32 - 1 -SN BR OVC029 1-hr Precip Total: Trace
2018-01-16 23:52 19 17 - 91 - Calm - 30.33 30.40 2 -SN BR OVC039 1-hr Precip Total: Trace
24-hr Min Temp (12am): 1.0°F
24-hr Max Temp (12am): 21.9°F
2018-01-16 23:47 19 16 - 85 - Calm - 30.33 - 2 -SN BR OVC041 1-hr Precip Total: Trace
2018-01-16 23:38 19 17 - 91 - Calm - 30.33 - 3 -SN BR OVC041 1-hr Precip Total: Trace
2018-01-16 22:52 19 16 - 87 - Calm - 30.34 30.41 2 -SN BR OVC038 1-hr Precip Total: Trace
2018-01-16 22:50 19 16 - 85 - Calm - 30.34 - 2 -SN BR OVC038 1-hr Precip Total: Trace
2018-01-16 21:52 18 16 - 91 - Calm - 30.35 30.42 3 -SN BR OVC046 1-hr Precip Total: Trace
6-hr Precip Total (10pm): 0.00"
2018-01-16 21:01 18 16 - 91 - Calm - 30.35 - 9 SCT024 BKN040 OVC060 None
2018-01-16 20:52 18 16 - 91 - Calm - 30.35 30.43 8 BKN024 BKN040 OVC070 1-hr Precip Total: Trace
2018-01-16 20:31 18 16 - 91 - Calm - 30.35 - 10 BKN025 BKN048 OVC085 1-hr Precip Total: Trace
2018-01-16 19:52 18 16 - 91 - Calm - 30.36 30.44 5 -SN BR FEW025 BKN037 OVC075 1-hr Precip Total: Trace
2018-01-16 19:34 19 16 - 87 - Calm - 30.35 - 4 -SN BR SCT027 OVC042 1-hr Precip Total: Trace
2018-01-16 19:19 19 17 - 91 - Calm - 30.36 - 4 -SN BR BKN026 OVC055 1-hr Precip Total: Trace
2018-01-16 18:52 20 18 - 91 - Calm - 30.36 30.44 4 -SN BR BKN036 OVC070 1-hr Precip Total: Trace
6-hr Precip Total (7pm): 0.00"
6-hr Min Temp (7pm): 19.9°F
6-hr Max Temp (7pm): 21.9°F
2018-01-16 18:42 20 18 - 91 - Calm - 30.36 - 3 -SN BR OVC028 1-hr Precip Total: Trace
2018-01-16 18:31 20 17 - 88 - Calm - 30.36 - 2 -SN BR BKN028 OVC035 1-hr Precip Total: Trace
2018-01-16 17:52 21 17 - 84 - Calm - 30.36 30.43 5 -SN BR FEW028 OVC037 1-hr Precip Total: Trace
2018-01-16 17:38 21 18 - 87 - Calm - 30.35 - 5 -SN BR FEW028 OVC040 1-hr Precip Total: Trace
2018-01-16 16:52 21 18 - 87 - Calm - 30.35 30.43 4 -SN BR BKN024 OVC045 1-hr Precip Total: Trace
2018-01-16 16:19 22 17 - 81 - Calm - 30.35 - 3 -SN BKN022 OVC048 1-hr Precip Total: Trace
2018-01-16 15:52 22 17 - 81 - Calm - 30.34 30.42 2 -SN BKN024 BKN042 OVC050 1-hr Precip Total: Trace
6-hr Precip Total (4pm): 0.00"
2018-01-16 15:43 22 16 - 77 - Calm - 30.34 - 2 -SN BKN024 BKN044 OVC050 1-hr Precip Total: Trace
2018-01-16 15:23 22 16 - 77 - Calm - 30.34 - 2 -SN SCT026 OVC050 1-hr Precip Total: Trace
2018-01-16 15:02 22 16 17 77 310° 3 - 30.34 - 3 -SN FEW026 OVC050 1-hr Precip Total: Trace
2018-01-16 14:52 22 16 - 77 - Calm - 30.34 30.42 2 -SN BKN045 OVC055 1-hr Precip Total: Trace
2018-01-16 14:44 22 15 - 74 - Calm - 30.34 - 2 -SN BKN043 OVC055 1-hr Precip Total: Trace
2018-01-16 13:52 22 15 - 74 - Calm - 30.33 30.41 8 FEW032 OVC050 1-hr Precip Total: Trace
2018-01-16 12:52 21 13 16 70 300° 3 - 30.34 30.42 8 FEW030 BKN040 OVC075 1-hr Precip Total: Trace
6-hr Precip Total (1pm): 0.00"
6-hr Min Temp (1pm): 3.9°F
6-hr Max Temp (1pm): 21.0°F
2018-01-16 11:59 19 12 - 73 - Calm - 30.35 - 3 -SN BKN033 OVC040 1-hr Precip Total: Trace
2018-01-16 11:52 18 12 - 77 - Calm - 30.36 30.43 3 -SN BKN029 OVC037 1-hr Precip Total: Trace
2018-01-16 11:13 16 9 - 73 - Calm - 30.38 - 10 OVC029 None
2018-01-16 10:52 14 9 - 79 - Calm - 30.40 30.48 10 OVC030 1-hr Precip Total: Trace
2018-01-16 10:03 11 7 - 83 - Calm - 30.40 - 4 -SN BR OVC031 1-hr Precip Total: Trace
2018-01-16 09:52 11 7 - 83 - Calm - 30.40 30.48 2 -SN BR OVC032 1-hr Precip Total: Trace
6-hr Precip Total (10am): 0.00"
2018-01-16 09:31 9 6 - 87 - Calm - 30.41 - 3 -SN BR OVC034 1-hr Precip Total: Trace
2018-01-16 09:15 8 4 - 82 - Calm - 30.41 - 2 -SN BR OVC034 1-hr Precip Total: Trace
2018-01-16 08:52 7 3 - 83 - Calm - 30.41 30.50 4 BR OVC034 1-hr Precip Total: Trace
2018-01-16 07:52 4 1 - 87 - Calm - 30.41 30.50 4 -SN BR OVC036 1-hr Precip Total: Trace
2018-01-16 06:52 5 1 - 83 - Calm - 30.40 30.50 9 BKN055 BKN070 OVC085 6-hr Min Temp (7am): 1.0°F
6-hr Max Temp (7am): 6.1°F

Support USWX by starting your Amazon purchase here.